METAR Data
IDs: Format: Raw Decoded Include TAF

Data at: 1335 UTC 26 Feb 2021

EGBB 261320Z 29007KT 230V330 9999 SCT035 11/02 Q1037